Time;durP1;ratioP1;P1;durP2;ratioP2;P2;SDS_P1;SDS_P2;PMS_P1;PMS_P2;Temp;Humidity;BMP_temperature;BMP_pressure;BME280_temperature;BME280_humidity;BME280_pressure;Samples;Min_cycle;Max_cycle;Signal;HPM_P1;HPM_P2
2023/11/25 00:00:31;;;;;;;12.70;7.25;;;;;;;;;;5063885;28;20032;-67
2023/11/25 00:02:58;;;;;;;10.38;6.85;;;;;;;;;;5061783;28;20033;-68
2023/11/25 00:05:24;;;;;;;11.85;7.72;;;;;;;;;;5063078;28;20020;-67
2023/11/25 00:07:50;;;;;;;14.00;8.65;;;;;;;;;;5066662;28;20428;-69
2023/11/25 00:10:16;;;;;;;15.68;8.52;;;;;;;;;;5062551;28;20351;-67
2023/11/25 00:12:43;;;;;;;19.92;10.43;;;;;;;;;;5057524;28;20140;-67
2023/11/25 00:15:10;;;;;;;11.65;7.68;;;;;;;;;;5063210;28;20039;-67
2023/11/25 00:17:36;;;;;;;13.57;8.20;;;;;;;;;;5055813;28;20042;-68
2023/11/25 00:20:05;;;;;;;16.13;8.38;;;;;;;;;;5065539;28;20702;-68
2023/11/25 00:22:31;;;;;;;13.90;8.18;;;;;;;;;;5063268;28;20611;-67
2023/11/25 00:24:57;;;;;;;11.35;7.85;;;;;;;;;;5062142;28;20036;-68
2023/11/25 00:27:23;;;;;;;13.43;7.35;;;;;;;;;;5043689;28;20024;-67
2023/11/25 00:29:49;;;;;;;12.35;8.07;;;;;;;;;;5064223;28;20029;-68
2023/11/25 00:32:15;;;;;;;25.10;8.02;;;;;;;;;;5060706;28;20069;-67
2023/11/25 00:34:41;;;;;;;17.85;7.93;;;;;;;;;;5071378;28;20024;-68
2023/11/25 00:37:08;;;;;;;10.77;7.55;;;;;;;;;;5075502;28;20060;-68
2023/11/25 00:39:34;;;;;;;12.23;9.45;;;;;;;;;;5065541;28;20029;-67
2023/11/25 00:42:00;;;;;;;23.73;9.32;;;;;;;;;;5062581;28;20037;-68
2023/11/25 00:44:26;;;;;;;13.93;7.65;;;;;;;;;;5067954;28;20067;-71
2023/11/25 00:46:52;;;;;;;12.43;7.85;;;;;;;;;;5060765;28;20085;-68
2023/11/25 00:49:19;;;;;;;25.05;8.93;;;;;;;;;;5058905;28;20539;-67
2023/11/25 00:51:45;;;;;;;16.73;8.65;;;;;;;;;;5061545;28;20087;-67
2023/11/25 00:54:11;;;;;;;12.65;7.10;;;;;;;;;;5078384;28;20034;-67
2023/11/25 00:56:37;;;;;;;17.13;8.75;;;;;;;;;;5073135;28;20021;-68
2023/11/25 00:59:03;;;;;;;19.33;11.88;;;;;;;;;;5060877;28;20206;-67
2023/11/25 01:01:30;;;;;;;20.20;10.00;;;;;;;;;;5062649;28;20033;-68
2023/11/25 01:03:56;;;;;;;9.90;8.23;;;;;;;;;;5053557;28;20588;-67
2023/11/25 01:06:23;;;;;;;12.63;8.73;;;;;;;;;;5062999;28;20036;-67
2023/11/25 01:08:49;;;;;;;13.55;8.57;;;;;;;;;;5070774;28;20034;-68
2023/11/25 01:11:18;;;;;;;16.75;8.35;;;;;;;;;;5062481;28;20469;-68
2023/11/25 01:13:44;;;;;;;17.00;9.00;;;;;;;;;;5073322;28;20040;-67
2023/11/25 01:16:17;;;;;;;13.07;8.48;;;;;;;;;;5068554;28;20085;-68
2023/11/25 01:18:43;;;;;;;15.65;8.05;;;;;;;;;;5061137;28;20035;-67
2023/11/25 01:21:09;;;;;;;12.63;8.00;;;;;;;;;;5064247;28;20024;-68
2023/11/25 01:23:36;;;;;;;17.90;9.05;;;;;;;;;;5059324;28;20414;-68
2023/11/25 01:26:03;;;;;;;14.50;8.02;;;;;;;;;;5062807;28;20032;-67
2023/11/25 01:28:29;;;;;;;12.00;7.65;;;;;;;;;;5060408;28;20024;-67
2023/11/25 01:30:56;;;;;;;10.27;6.35;;;;;;;;;;5050201;28;20123;-67
2023/11/25 01:33:22;;;;;;;16.08;7.00;;;;;;;;;;5056739;28;20078;-68
2023/11/25 01:35:48;;;;;;;13.27;7.75;;;;;;;;;;5061407;28;20028;-68
2023/11/25 01:38:14;;;;;;;11.23;6.70;;;;;;;;;;5057332;28;20033;-68
2023/11/25 01:40:40;;;;;;;11.43;6.88;;;;;;;;;;5057217;28;20485;-67
2023/11/25 01:43:15;;;;;;;12.55;7.88;;;;;;;;;;5057379;28;20056;-67
2023/11/25 01:45:42;;;;;;;12.30;8.05;;;;;;;;;;5057199;28;20060;-67
2023/11/25 01:48:08;;;;;;;16.55;8.45;;;;;;;;;;5057832;28;20075;-68
2023/11/25 01:50:36;;;;;;;13.23;8.30;;;;;;;;;;5062303;28;20430;-67
2023/11/25 01:53:04;;;;;;;12.70;7.28;;;;;;;;;;5062819;28;20031;-67
2023/11/25 01:55:32;;;;;;;16.52;6.60;;;;;;;;;;5063372;28;20482;-67
2023/11/25 01:58:01;;;;;;;14.30;7.43;;;;;;;;;;5059133;28;20022;-67
2023/11/25 02:00:28;;;;;;;14.48;7.43;;;;;;;;;;5060980;28;20086;-68
2023/11/25 02:02:57;;;;;;;19.85;8.65;;;;;;;;;;5059792;28;20213;-67
2023/11/25 02:05:24;;;;;;;15.35;7.22;;;;;;;;;;5061321;28;20394;-67
2023/11/25 02:07:51;;;;;;;13.65;7.07;;;;;;;;;;5076164;28;20357;-67
2023/11/25 02:10:19;;;;;;;12.85;7.32;;;;;;;;;;5068428;28;20009;-68
2023/11/25 02:12:46;;;;;;;14.07;7.20;;;;;;;;;;5063952;28;20114;-67
2023/11/25 02:15:14;;;;;;;10.05;6.80;;;;;;;;;;5062404;28;20037;-68
2023/11/25 02:17:44;;;;;;;13.73;6.85;;;;;;;;;;5063073;28;20473;-68
2023/11/25 02:20:14;;;;;;;11.45;7.05;;;;;;;;;;5063194;28;20445;-67
2023/11/25 02:22:52;;;;;;;12.15;7.35;;;;;;;;;;5068298;28;20120;-67
2023/11/25 02:25:21;;;;;;;15.77;8.07;;;;;;;;;;5059835;28;20025;-67
2023/11/25 02:27:48;;;;;;;17.75;7.53;;;;;;;;;;5062575;28;20565;-66
2023/11/25 02:30:14;;;;;;;14.30;7.55;;;;;;;;;;5063066;28;20395;-67
2023/11/25 02:32:43;;;;;;;17.17;8.30;;;;;;;;;;5065298;28;20029;-67
2023/11/25 02:35:12;;;;;;;15.38;7.93;;;;;;;;;;5060639;28;20429;-66
2023/11/25 02:37:38;;;;;;;10.60;7.25;;;;;;;;;;5067131;28;20035;-67
2023/11/25 02:40:05;;;;;;;13.13;7.28;;;;;;;;;;5062825;28;20025;-66
2023/11/25 02:42:31;;;;;;;9.75;7.22;;;;;;;;;;5065384;28;20036;-67
2023/11/25 02:44:57;;;;;;;12.00;7.18;;;;;;;;;;5058838;28;20099;-67
2023/11/25 02:47:23;;;;;;;11.00;6.63;;;;;;;;;;5068554;28;20028;-67
2023/11/25 02:49:50;;;;;;;13.55;7.93;;;;;;;;;;5062884;28;20047;-67
2023/11/25 02:52:16;;;;;;;12.75;7.75;;;;;;;;;;5066001;28;20481;-68
2023/11/25 02:54:42;;;;;;;16.67;7.93;;;;;;;;;;5062401;28;20436;-68
2023/11/25 02:57:09;;;;;;;13.93;7.13;;;;;;;;;;5068319;28;20039;-68
2023/11/25 02:59:36;;;;;;;13.35;7.43;;;;;;;;;;5081100;28;20131;-67
2023/11/25 03:02:09;;;;;;;12.57;7.40;;;;;;;;;;5069331;28;20036;-67
2023/11/25 03:04:45;;;;;;;11.52;7.15;;;;;;;;;;5070386;28;20085;-67
2023/11/25 03:07:12;;;;;;;10.55;7.05;;;;;;;;;;5062319;28;20435;-66
2023/11/25 03:09:42;;;;;;;16.33;8.85;;;;;;;;;;5068869;28;20070;-67
2023/11/25 03:12:09;;;;;;;12.20;8.52;;;;;;;;;;5061531;28;20041;-67
2023/11/25 03:14:35;;;;;;;14.02;7.38;;;;;;;;;;5062616;28;20059;-67
2023/11/25 03:17:02;;;;;;;15.45;8.50;;;;;;;;;;5059791;28;20047;-67
2023/11/25 03:19:28;;;;;;;14.32;7.80;;;;;;;;;;5070244;28;20025;-67
2023/11/25 03:21:54;;;;;;;16.15;9.38;;;;;;;;;;5058973;28;20094;-67
2023/11/25 03:24:24;;;;;;;13.45;7.07;;;;;;;;;;5063292;28;20449;-68
2023/11/25 03:26:53;;;;;;;10.75;6.75;;;;;;;;;;5059679;28;20028;-68
2023/11/25 03:29:20;;;;;;;10.65;6.65;;;;;;;;;;5066840;28;20032;-68
2023/11/25 03:31:47;;;;;;;11.10;6.13;;;;;;;;;;5078069;28;20056;-68
2023/11/25 03:34:13;;;;;;;9.10;5.45;;;;;;;;;;5064306;28;20039;-68
2023/11/25 03:36:39;;;;;;;10.40;6.47;;;;;;;;;;5062613;28;20029;-68
2023/11/25 03:39:09;;;;;;;8.88;6.32;;;;;;;;;;5065770;28;20055;-69
2023/11/25 03:41:35;;;;;;;10.85;6.70;;;;;;;;;;5058989;28;20094;-67
2023/11/25 03:44:01;;;;;;;13.68;6.88;;;;;;;;;;5072126;28;20222;-68
2023/11/25 03:46:28;;;;;;;13.13;6.90;;;;;;;;;;5068820;28;20029;-67
2023/11/25 03:48:54;;;;;;;7.03;6.28;;;;;;;;;;5063920;28;20031;-67
2023/11/25 03:51:20;;;;;;;11.15;5.97;;;;;;;;;;5067152;28;20520;-67
2023/11/25 03:53:47;;;;;;;8.63;6.10;;;;;;;;;;5064837;28;20024;-67
2023/11/25 03:56:16;;;;;;;16.73;6.55;;;;;;;;;;5061710;28;20384;-67
2023/11/25 03:58:43;;;;;;;9.40;6.47;;;;;;;;;;5061764;28;20077;-68
2023/11/25 04:01:09;;;;;;;11.80;6.35;;;;;;;;;;5066766;28;20393;-68
2023/11/25 04:03:35;;;;;;;8.98;6.53;;;;;;;;;;5074704;28;20024;-67
2023/11/25 04:06:03;;;;;;;13.63;6.65;;;;;;;;;;5064288;28;20029;-69
2023/11/25 04:08:32;;;;;;;14.05;6.20;;;;;;;;;;5056132;28;20484;-68
2023/11/25 04:10:59;;;;;;;12.50;6.60;;;;;;;;;;5064338;28;20037;-67
2023/11/25 04:13:25;;;;;;;8.98;6.35;;;;;;;;;;5061681;28;20033;-67
2023/11/25 04:15:51;;;;;;;10.27;6.35;;;;;;;;;;5066780;28;20098;-68
2023/11/25 04:18:18;;;;;;;10.82;6.43;;;;;;;;;;5065323;28;20107;-67
2023/11/25 04:20:44;;;;;;;12.90;6.47;;;;;;;;;;5059226;28;20035;-68
2023/11/25 04:23:14;;;;;;;8.98;6.63;;;;;;;;;;5069850;28;20029;-68
2023/11/25 04:25:46;;;;;;;11.52;6.10;;;;;;;;;;5059042;28;20408;-67
2023/11/25 04:28:12;;;;;;;16.02;6.07;;;;;;;;;;5062024;28;20030;-68
2023/11/25 04:30:39;;;;;;;6.35;5.55;;;;;;;;;;5056718;28;20024;-67
2023/11/25 04:33:09;;;;;;;9.80;7.22;;;;;;;;;;5081937;28;20104;-67
2023/11/25 04:35:36;;;;;;;11.40;6.97;;;;;;;;;;5061667;28;20028;-67
2023/11/25 04:38:03;;;;;;;9.23;6.32;;;;;;;;;;5065528;28;20063;-68
2023/11/25 04:40:29;;;;;;;11.98;6.53;;;;;;;;;;5070551;28;20080;-68
2023/11/25 04:42:55;;;;;;;10.60;5.60;;;;;;;;;;5060070;28;20104;-68
2023/11/25 04:45:21;;;;;;;9.32;5.82;;;;;;;;;;5049413;28;20064;-68
2023/11/25 04:47:49;;;;;;;11.60;5.70;;;;;;;;;;5060707;28;20025;-68
2023/11/25 04:50:16;;;;;;;10.05;6.28;;;;;;;;;;5071772;28;20529;-68
2023/11/25 04:52:43;;;;;;;7.65;6.13;;;;;;;;;;5061904;28;20066;-68
2023/11/25 04:55:09;;;;;;;9.98;6.15;;;;;;;;;;5063581;28;20032;-68
2023/11/25 04:57:38;;;;;;;16.95;6.00;;;;;;;;;;5063371;28;20025;-67
2023/11/25 05:00:11;;;;;;;8.27;6.00;;;;;;;;;;5059753;28;20024;-68
2023/11/25 05:02:38;;;;;;;9.27;6.30;;;;;;;;;;5059579;28;20024;-68
2023/11/25 05:05:04;;;;;;;8.45;6.35;;;;;;;;;;5064056;28;20032;-68
2023/11/25 05:07:31;;;;;;;10.88;6.82;;;;;;;;;;5063347;28;20024;-67
2023/11/25 05:09:57;;;;;;;8.50;5.82;;;;;;;;;;5065866;28;20086;-68
2023/11/25 05:12:23;;;;;;;10.02;5.60;;;;;;;;;;5059187;28;20099;-67
2023/11/25 05:14:50;;;;;;;13.50;6.15;;;;;;;;;;5060162;28;20075;-68
2023/11/25 05:17:16;;;;;;;16.75;6.53;;;;;;;;;;5064526;28;20032;-68
2023/11/25 05:19:42;;;;;;;10.27;5.65;;;;;;;;;;5057644;28;20326;-68
2023/11/25 05:22:09;;;;;;;8.38;5.78;;;;;;;;;;5059742;28;20032;-68
2023/11/25 05:24:35;;;;;;;9.82;6.57;;;;;;;;;;5070508;28;20028;-68
2023/11/25 05:27:01;;;;;;;12.10;6.57;;;;;;;;;;5060367;28;20125;-68
2023/11/25 05:29:28;;;;;;;9.27;5.57;;;;;;;;;;5063621;28;20312;-68
2023/11/25 05:31:54;;;;;;;8.82;4.93;;;;;;;;;;5064890;28;20081;-68
2023/11/25 05:34:20;;;;;;;10.23;6.10;;;;;;;;;;5061826;28;20818;-68
2023/11/25 05:36:47;;;;;;;7.40;5.63;;;;;;;;;;5064241;28;20048;-68
2023/11/25 05:39:15;;;;;;;13.02;6.25;;;;;;;;;;5064136;28;20261;-68
2023/11/25 05:41:43;;;;;;;10.95;5.18;;;;;;;;;;5054499;28;20036;-68
2023/11/25 05:44:10;;;;;;;11.07;5.68;;;;;;;;;;5055048;28;20048;-68
2023/11/25 05:46:36;;;;;;;9.95;5.60;;;;;;;;;;5060849;28;20029;-67
2023/11/25 05:49:08;;;;;;;10.07;5.15;;;;;;;;;;5073844;28;20029;-68
2023/11/25 05:51:36;;;;;;;7.82;5.22;;;;;;;;;;5059607;28;20021;-68
2023/11/25 05:54:02;;;;;;;8.02;5.45;;;;;;;;;;5056421;28;20029;-67
2023/11/25 05:56:29;;;;;;;8.63;6.13;;;;;;;;;;5056846;28;20484;-69
2023/11/25 05:58:56;;;;;;;7.55;5.20;;;;;;;;;;5059678;28;20022;-68
2023/11/25 06:01:22;;;;;;;7.35;5.30;;;;;;;;;;5059742;28;20143;-68
2023/11/25 06:03:52;;;;;;;10.43;5.22;;;;;;;;;;5061927;28;20040;-68
2023/11/25 06:06:20;;;;;;;9.13;5.47;;;;;;;;;;5058591;28;20510;-67
2023/11/25 06:08:47;;;;;;;10.48;5.68;;;;;;;;;;5063107;28;20059;-67
2023/11/25 06:11:28;;;;;;;9.00;5.00;;;;;;;;;;5055254;28;20029;-68
2023/11/25 06:13:56;;;;;;;8.07;5.43;;;;;;;;;;5060344;28;20119;-68
2023/11/25 06:16:22;;;;;;;11.63;5.85;;;;;;;;;;5059282;28;20047;-67
2023/11/25 06:18:48;;;;;;;9.52;5.78;;;;;;;;;;5055959;28;20025;-67
2023/11/25 06:21:15;;;;;;;11.85;6.50;;;;;;;;;;5054396;28;20032;-68
2023/11/25 06:23:42;;;;;;;16.73;6.38;;;;;;;;;;5046308;28;20281;-68
2023/11/25 06:26:10;;;;;;;7.32;5.28;;;;;;;;;;5043838;28;20025;-68
2023/11/25 06:28:43;;;;;;;12.18;7.30;;;;;;;;;;5054368;28;20039;-68
2023/11/25 06:31:09;;;;;;;10.23;6.25;;;;;;;;;;5053266;28;20106;-68
2023/11/25 06:33:36;;;;;;;15.50;6.68;;;;;;;;;;5056384;28;20387;-67
2023/11/25 06:36:02;;;;;;;9.52;6.43;;;;;;;;;;5058823;28;20059;-67
2023/11/25 06:38:28;;;;;;;11.25;6.97;;;;;;;;;;5058312;28;20047;-67
2023/11/25 06:40:55;;;;;;;11.35;6.32;;;;;;;;;;5056596;28;20025;-68
2023/11/25 06:43:21;;;;;;;11.32;6.22;;;;;;;;;;5066114;28;20071;-67
2023/11/25 06:45:49;;;;;;;11.52;6.55;;;;;;;;;;5072879;28;20036;-67
2023/11/25 06:48:23;;;;;;;11.18;6.45;;;;;;;;;;5070527;28;20035;-68
2023/11/25 06:50:50;;;;;;;12.80;7.10;;;;;;;;;;5060285;28;20024;-68
2023/11/25 06:53:16;;;;;;;9.38;5.22;;;;;;;;;;5058803;28;20032;-68
2023/11/25 06:55:44;;;;;;;9.75;5.57;;;;;;;;;;5066159;28;20037;-68
2023/11/25 06:58:11;;;;;;;8.10;5.60;;;;;;;;;;5062779;28;20401;-67
2023/11/25 07:00:38;;;;;;;6.15;5.47;;;;;;;;;;5058938;28;20028;-68
2023/11/25 07:03:04;;;;;;;8.65;6.63;;;;;;;;;;5058743;28;20458;-68
2023/11/25 07:05:31;;;;;;;7.80;5.97;;;;;;;;;;5060606;28;20927;-67
2023/11/25 07:07:57;;;;;;;10.23;5.88;;;;;;;;;;5059956;28;20281;-67
2023/11/25 07:10:23;;;;;;;8.65;6.60;;;;;;;;;;5064758;28;20035;-68
2023/11/25 07:12:49;;;;;;;11.10;6.22;;;;;;;;;;5061612;28;20021;-67
2023/11/25 07:15:15;;;;;;;9.55;6.45;;;;;;;;;;5070605;28;20123;-68
2023/11/25 07:17:42;;;;;;;10.70;6.90;;;;;;;;;;5063466;28;20123;-68
2023/11/25 07:20:12;;;;;;;14.98;6.88;;;;;;;;;;5060657;28;20437;-68
2023/11/25 07:22:38;;;;;;;8.20;6.30;;;;;;;;;;5071767;28;20051;-68
2023/11/25 07:25:05;;;;;;;11.73;7.28;;;;;;;;;;5060992;28;20491;-67
2023/11/25 07:27:32;;;;;;;12.50;7.63;;;;;;;;;;5060652;28;20404;-68
2023/11/25 07:30:00;;;;;;;12.10;6.85;;;;;;;;;;5060316;28;20100;-67
2023/11/25 07:32:27;;;;;;;8.02;6.00;;;;;;;;;;5061363;28;20017;-68
2023/11/25 07:34:53;;;;;;;14.27;7.28;;;;;;;;;;5064625;28;20032;-68
2023/11/25 07:37:19;;;;;;;13.00;8.10;;;;;;;;;;5059200;28;20036;-67
2023/11/25 07:39:45;;;;;;;15.85;6.75;;;;;;;;;;5061987;28;20052;-68
2023/11/25 07:42:11;;;;;;;9.65;6.90;;;;;;;;;;5064805;28;20469;-67
2023/11/25 07:44:38;;;;;;;10.70;5.80;;;;;;;;;;5063618;28;20048;-68
2023/11/25 07:47:04;;;;;;;9.07;7.45;;;;;;;;;;5059796;28;20025;-67
2023/11/25 07:49:30;;;;;;;21.23;6.90;;;;;;;;;;5060464;28;20889;-68
2023/11/25 07:51:57;;;;;;;9.38;6.45;;;;;;;;;;5058507;28;20025;-68
2023/11/25 07:54:24;;;;;;;13.98;7.53;;;;;;;;;;5059484;28;20585;-68
2023/11/25 07:56:50;;;;;;;13.70;6.60;;;;;;;;;;5060248;28;20032;-68
2023/11/25 07:59:16;;;;;;;8.95;6.55;;;;;;;;;;5067853;28;20558;-68
2023/11/25 08:01:42;;;;;;;11.80;6.20;;;;;;;;;;5064051;28;20460;-68
2023/11/25 08:04:08;;;;;;;9.48;6.25;;;;;;;;;;5073100;28;20024;-69
2023/11/25 08:06:34;;;;;;;14.57;6.22;;;;;;;;;;5062664;28;20032;-68
2023/11/25 08:09:02;;;;;;;13.30;7.10;;;;;;;;;;5065769;28;20510;-68
2023/11/25 08:11:31;;;;;;;11.50;6.30;;;;;;;;;;5063388;28;20131;-68
2023/11/25 08:13:58;;;;;;;14.32;7.15;;;;;;;;;;5061338;28;20035;-68
2023/11/25 08:16:24;;;;;;;10.35;6.53;;;;;;;;;;5062142;28;20025;-68
2023/11/25 08:18:50;;;;;;;10.88;6.05;;;;;;;;;;5067398;28;20400;-68
2023/11/25 08:21:17;;;;;;;18.10;7.15;;;;;;;;;;5059442;28;20107;-68
2023/11/25 08:23:43;;;;;;;11.77;7.20;;;;;;;;;;5060629;28;20039;-67
2023/11/25 08:26:19;;;;;;;9.45;7.43;;;;;;;;;;5064678;28;20036;-68
2023/11/25 08:28:45;;;;;;;12.18;7.70;;;;;;;;;;5063078;28;20740;-69
2023/11/25 08:31:11;;;;;;;12.15;8.75;;;;;;;;;;5062360;28;20021;-68
2023/11/25 08:33:40;;;;;;;14.35;7.57;;;;;;;;;;5058312;28;20577;-68
2023/11/25 08:36:07;;;;;;;17.08;8.57;;;;;;;;;;5058415;28;20028;-67
2023/11/25 08:38:33;;;;;;;22.38;11.15;;;;;;;;;;5059372;28;20028;-68
2023/11/25 08:40:59;;;;;;;54.15;26.60;;;;;;;;;;5056318;28;20029;-68
2023/11/25 08:43:26;;;;;;;19.25;9.95;;;;;;;;;;5054799;28;20351;-68
2023/11/25 08:45:53;;;;;;;11.00;7.00;;;;;;;;;;5061897;28;20024;-67
2023/11/25 08:48:20;;;;;;;16.83;8.85;;;;;;;;;;5062451;28;20041;-68
2023/11/25 08:50:46;;;;;;;7.40;6.63;;;;;;;;;;5062895;28;20058;-68
2023/11/25 08:53:15;;;;;;;15.45;7.13;;;;;;;;;;5060629;28;20037;-68
2023/11/25 08:55:41;;;;;;;34.17;17.40;;;;;;;;;;5078751;28;20240;-68
2023/11/25 08:58:07;;;;;;;20.15;10.93;;;;;;;;;;5056299;28;20148;-68
2023/11/25 09:00:34;;;;;;;23.77;13.32;;;;;;;;;;5055957;28;20020;-67
2023/11/25 09:03:02;;;;;;;12.02;7.43;;;;;;;;;;5059523;28;20028;-68
2023/11/25 09:05:28;;;;;;;11.75;7.32;;;;;;;;;;5059646;28;20029;-68
2023/11/25 09:07:55;;;;;;;14.98;7.45;;;;;;;;;;5062827;28;20031;-68
2023/11/25 09:10:24;;;;;;;11.82;7.75;;;;;;;;;;5061857;28;20512;-68
2023/11/25 09:12:52;;;;;;;11.60;7.10;;;;;;;;;;5055812;28;20445;-68
2023/11/25 09:15:18;;;;;;;10.93;7.63;;;;;;;;;;5055954;28;20040;-67
2023/11/25 09:17:44;;;;;;;12.98;8.38;;;;;;;;;;5057724;28;20107;-69
2023/11/25 09:20:12;;;;;;;13.40;8.02;;;;;;;;;;5057370;28;20032;-69
2023/11/25 09:22:44;;;;;;;12.20;7.72;;;;;;;;;;5055989;28;20028;-68
2023/11/25 09:25:12;;;;;;;14.65;7.38;;;;;;;;;;5050849;28;20660;-69
2023/11/25 09:27:39;;;;;;;14.18;7.35;;;;;;;;;;5056611;28;20078;-69
2023/11/25 09:30:09;;;;;;;10.15;6.78;;;;;;;;;;5058557;28;20020;-69
2023/11/25 09:32:36;;;;;;;12.77;7.40;;;;;;;;;;5056143;28;20142;-69
2023/11/25 09:35:03;;;;;;;7.43;6.00;;;;;;;;;;5059428;28;20036;-68
2023/11/25 09:37:30;;;;;;;14.73;7.13;;;;;;;;;;5058465;28;20070;-69
2023/11/25 09:39:56;;;;;;;15.82;6.80;;;;;;;;;;5055166;28;20357;-69
2023/11/25 09:42:22;;;;;;;13.23;7.28;;;;;;;;;;5051530;28;20408;-69
2023/11/25 09:44:49;;;;;;;12.02;6.43;;;;;;;;;;5049613;28;20093;-69
2023/11/25 09:47:16;;;;;;;15.23;7.50;;;;;;;;;;5061316;28;20024;-71
2023/11/25 09:49:43;;;;;;;10.40;6.10;;;;;;;;;;5057692;28;20077;-71
2023/11/25 09:52:10;;;;;;;12.30;6.88;;;;;;;;;;5058944;28;20653;-71
2023/11/25 09:54:36;;;;;;;9.93;6.22;;;;;;;;;;5059664;28;20097;-71
2023/11/25 09:57:06;;;;;;;10.63;6.30;;;;;;;;;;5055112;28;20039;-71
2023/11/25 09:59:33;;;;;;;9.82;5.65;;;;;;;;;;5059849;28;20028;-71
2023/11/25 10:02:00;;;;;;;8.90;5.95;;;;;;;;;;5058292;28;20405;-71
2023/11/25 10:04:27;;;;;;;14.70;8.15;;;;;;;;;;5058906;28;20065;-72
2023/11/25 10:06:54;;;;;;;12.65;9.40;;;;;;;;;;5055473;28;20032;-71
2023/11/25 10:09:21;;;;;;;10.68;6.93;;;;;;;;;;5058571;28;20419;-71
2023/11/25 10:11:47;;;;;;;7.30;5.90;;;;;;;;;;5074040;28;20123;-71
2023/11/25 10:14:13;;;;;;;9.85;6.95;;;;;;;;;;5056693;28;20040;-71
2023/11/25 10:16:44;;;;;;;11.05;7.32;;;;;;;;;;5061060;28;20374;-72
2023/11/25 10:19:20;;;;;;;6.50;5.70;;;;;;;;;;5056937;28;20380;-71
2023/11/25 10:21:50;;;;;;;14.70;7.13;;;;;;;;;;5058613;28;20052;-71
2023/11/25 10:24:22;;;;;;;13.40;6.95;;;;;;;;;;5055025;28;20025;-71
2023/11/25 10:26:50;;;;;;;6.72;4.72;;;;;;;;;;5055530;28;20426;-72
2023/11/25 10:29:19;;;;;;;10.18;5.50;;;;;;;;;;5075833;28;20049;-71
2023/11/25 10:31:45;;;;;;;11.65;6.05;;;;;;;;;;5061364;28;20016;-71
2023/11/25 10:34:13;;;;;;;10.95;5.55;;;;;;;;;;5078442;28;20028;-70
2023/11/25 10:36:39;;;;;;;8.60;5.38;;;;;;;;;;5054124;28;20029;-70
2023/11/25 10:39:08;;;;;;;8.98;6.75;;;;;;;;;;5058998;28;20056;-70
2023/11/25 10:41:37;;;;;;;12.32;6.75;;;;;;;;;;5057945;28;20028;-70
2023/11/25 10:44:04;;;;;;;16.63;6.47;;;;;;;;;;5067995;28;20044;-70
2023/11/25 10:46:45;;;;;;;8.80;5.78;;;;;;;;;;5059859;28;20476;-70
2023/11/25 10:49:12;;;;;;;37.40;15.85;;;;;;;;;;5066747;28;20029;-70
2023/11/25 10:51:41;;;;;;;15.95;10.07;;;;;;;;;;5056904;28;20396;-70
2023/11/25 10:54:08;;;;;;;15.73;8.55;;;;;;;;;;5065410;28;20532;-70
2023/11/25 10:56:36;;;;;;;11.98;5.97;;;;;;;;;;5058088;28;20028;-70
2023/11/25 10:59:02;;;;;;;9.40;6.20;;;;;;;;;;5056476;28;20029;-69
2023/11/25 11:01:31;;;;;;;9.63;5.68;;;;;;;;;;5050719;28;20024;-69
2023/11/25 11:04:05;;;;;;;13.35;6.78;;;;;;;;;;5058154;28;20033;-70
2023/11/25 11:06:42;;;;;;;7.45;5.10;;;;;;;;;;5061681;28;20469;-69
2023/11/25 11:09:09;;;;;;;8.35;5.38;;;;;;;;;;5061185;28;20369;-70
2023/11/25 11:11:45;;;;;;;9.77;4.47;;;;;;;;;;5064011;28;20090;-70
2023/11/25 11:14:12;;;;;;;6.20;4.15;;;;;;;;;;5062479;28;20063;-70
2023/11/25 11:16:41;;;;;;;7.30;5.07;;;;;;;;;;5062941;28;20017;-71
2023/11/25 11:19:08;;;;;;;7.75;5.72;;;;;;;;;;5049264;28;20029;-70
2023/11/25 11:21:38;;;;;;;11.40;5.18;;;;;;;;;;5069622;28;20024;-71
2023/11/25 11:24:08;;;;;;;9.32;5.65;;;;;;;;;;5064320;28;20111;-71
2023/11/25 11:26:48;;;;;;;7.97;5.45;;;;;;;;;;5064095;28;20024;-71
2023/11/25 11:29:52;;;;;;;11.48;4.60;;;;;;;;;;5059411;28;20016;-71
2023/11/25 11:32:20;;;;;;;5.35;4.50;;;;;;;;;;5038743;28;20307;-71
2023/11/25 11:34:46;;;;;;;10.88;4.80;;;;;;;;;;5042119;28;20075;-70
2023/11/25 11:37:13;;;;;;;10.57;5.10;;;;;;;;;;5054484;28;20102;-69
2023/11/25 11:39:42;;;;;;;8.80;4.13;;;;;;;;;;5061181;28;20033;-71
2023/11/25 11:42:26;;;;;;;10.23;4.85;;;;;;;;;;5058439;28;20032;-70
2023/11/25 11:44:56;;;;;;;9.98;4.78;;;;;;;;;;5061538;28;20055;-71
2023/11/25 11:47:24;;;;;;;7.30;4.63;;;;;;;;;;5064636;28;20059;-71
2023/11/25 11:49:51;;;;;;;8.07;4.20;;;;;;;;;;5063052;28;20029;-71
2023/11/25 11:52:18;;;;;;;8.23;4.68;;;;;;;;;;5064563;28;20361;-70
2023/11/25 11:54:44;;;;;;;8.40;5.10;;;;;;;;;;5064342;28;20032;-71
2023/11/25 11:57:13;;;;;;;11.98;4.82;;;;;;;;;;5063707;28;20131;-70
2023/11/25 11:59:59;;;;;;;5.75;3.72;;;;;;;;;;5062056;28;20033;-69
2023/11/25 12:02:25;;;;;;;5.93;3.15;;;;;;;;;;5060866;28;20099;-70
2023/11/25 12:04:51;;;;;;;8.10;3.50;;;;;;;;;;5080876;28;20040;-69
2023/11/25 12:07:17;;;;;;;6.43;4.10;;;;;;;;;;5080704;28;20484;-69
2023/11/25 12:09:43;;;;;;;10.25;3.92;;;;;;;;;;5060901;28;20027;-70
2023/11/25 12:12:09;;;;;;;11.85;4.15;;;;;;;;;;5059973;28;20035;-70
2023/11/25 12:14:36;;;;;;;6.25;3.78;;;;;;;;;;5061806;28;20664;-70
2023/11/25 12:17:03;;;;;;;10.68;4.35;;;;;;;;;;5065542;28;20529;-70
2023/11/25 12:19:29;;;;;;;10.32;4.63;;;;;;;;;;5079126;28;20047;-70
2023/11/25 12:21:55;;;;;;;6.78;4.35;;;;;;;;;;5065968;28;20077;-70
2023/11/25 12:24:22;;;;;;;7.20;5.03;;;;;;;;;;5056228;28;20516;-70
2023/11/25 12:26:52;;;;;;;6.80;4.35;;;;;;;;;;5079527;28;20039;-70
2023/11/25 12:29:22;;;;;;;9.75;4.18;;;;;;;;;;5062623;28;20484;-70
2023/11/25 12:31:49;;;;;;;9.68;5.25;;;;;;;;;;5060738;28;20021;-70
2023/11/25 12:34:15;;;;;;;5.60;4.10;;;;;;;;;;5048916;28;20323;-70
2023/11/25 12:36:42;;;;;;;4.93;3.78;;;;;;;;;;5064251;28;20020;-70
2023/11/25 12:39:12;;;;;;;5.93;3.95;;;;;;;;;;5073077;28;20035;-70
2023/11/25 12:41:41;;;;;;;11.77;4.60;;;;;;;;;;5061364;28;20424;-70
2023/11/25 12:44:11;;;;;;;14.60;4.30;;;;;;;;;;5059877;28;20090;-70
2023/11/25 12:46:40;;;;;;;7.45;4.00;;;;;;;;;;5064551;28;20105;-70
2023/11/25 12:49:23;;;;;;;14.70;7.20;;;;;;;;;;5066836;28;20213;-71
2023/11/25 12:51:50;;;;;;;12.35;5.68;;;;;;;;;;5064200;28;20278;-70
2023/11/25 12:54:16;;;;;;;11.10;5.28;;;;;;;;;;5085625;28;20028;-71
2023/11/25 12:56:50;;;;;;;10.00;6.50;;;;;;;;;;5060630;28;20025;-71
2023/11/25 12:59:22;;;;;;;9.38;6.30;;;;;;;;;;5073678;28;20031;-70
2023/11/25 13:01:49;;;;;;;8.60;5.53;;;;;;;;;;5066954;28;20043;-70
2023/11/25 13:04:16;;;;;;;8.95;4.80;;;;;;;;;;5063751;28;20104;-71
2023/11/25 13:06:51;;;;;;;6.00;3.42;;;;;;;;;;5054980;28;21627;-70
2023/11/25 13:09:19;;;;;;;3.85;3.50;;;;;;;;;;5054444;28;20082;-71
2023/11/25 13:11:47;;;;;;;9.80;4.10;;;;;;;;;;5058980;28;20037;-71
2023/11/25 13:14:13;;;;;;;5.05;2.97;;;;;;;;;;5062282;28;20368;-70
2023/11/25 13:16:39;;;;;;;7.82;3.40;;;;;;;;;;5079304;28;20031;-71
2023/11/25 13:19:08;;;;;;;10.60;3.10;;;;;;;;;;5054691;28;20028;-70
2023/11/25 13:21:35;;;;;;;7.15;3.67;;;;;;;;;;5064376;28;20119;-70
2023/11/25 13:24:01;;;;;;;7.55;3.45;;;;;;;;;;5070350;28;20106;-70
2023/11/25 13:26:27;;;;;;;8.60;3.58;;;;;;;;;;5060699;28;20028;-70
2023/11/25 13:28:54;;;;;;;8.13;3.78;;;;;;;;;;5050013;28;20584;-70
2023/11/25 13:31:21;;;;;;;4.03;3.17;;;;;;;;;;5069350;28;20111;-70
2023/11/25 13:33:48;;;;;;;14.23;4.43;;;;;;;;;;5061539;28;20024;-70
2023/11/25 13:36:15;;;;;;;6.40;3.95;;;;;;;;;;5061179;28;20135;-70
2023/11/25 13:38:41;;;;;;;8.98;4.40;;;;;;;;;;5063221;28;20020;-71
2023/11/25 13:41:07;;;;;;;6.65;3.65;;;;;;;;;;5054771;28;20055;-71
2023/11/25 13:43:34;;;;;;;8.48;4.05;;;;;;;;;;5071109;28;20131;-71
2023/11/25 13:46:00;;;;;;;8.20;4.35;;;;;;;;;;5059536;28;20056;-70
2023/11/25 13:48:26;;;;;;;6.38;3.75;;;;;;;;;;5060689;28;20021;-71
2023/11/25 13:50:52;;;;;;;10.65;3.72;;;;;;;;;;5068356;28;20543;-69
2023/11/25 13:53:19;;;;;;;5.10;3.20;;;;;;;;;;5057726;28;20025;-70
2023/11/25 13:55:48;;;;;;;5.38;3.55;;;;;;;;;;5069897;28;20040;-71
2023/11/25 13:58:15;;;;;;;9.18;3.63;;;;;;;;;;5061841;28;20606;-72
2023/11/25 14:00:42;;;;;;;5.60;3.40;;;;;;;;;;5065958;28;20051;-70
2023/11/25 14:03:09;;;;;;;5.38;3.53;;;;;;;;;;5054875;28;20492;-69
2023/11/25 14:05:42;;;;;;;5.75;3.45;;;;;;;;;;5058901;28;20051;-70
2023/11/25 14:08:08;;;;;;;4.55;3.70;;;;;;;;;;5060558;28;20063;-70
2023/11/25 14:10:35;;;;;;;8.95;5.10;;;;;;;;;;5061690;28;20032;-69
2023/11/25 14:13:03;;;;;;;10.43;4.13;;;;;;;;;;5054072;28;20154;-70
2023/11/25 14:15:29;;;;;;;10.40;3.97;;;;;;;;;;5064163;28;20032;-70
2023/11/25 14:17:55;;;;;;;7.28;3.75;;;;;;;;;;5069533;28;20029;-70
2023/11/25 14:20:23;;;;;;;8.30;4.00;;;;;;;;;;5063188;28;20707;-70
2023/11/25 14:22:50;;;;;;;6.47;3.97;;;;;;;;;;5064991;28;20033;-70
2023/11/25 14:25:17;;;;;;;5.03;3.17;;;;;;;;;;5063261;28;20052;-69
2023/11/25 14:27:44;;;;;;;4.30;3.25;;;;;;;;;;5072657;28;20472;-70
2023/11/25 14:30:12;;;;;;;8.70;3.80;;;;;;;;;;5053762;28;20389;-70
2023/11/25 14:32:38;;;;;;;4.55;3.53;;;;;;;;;;5069969;28;20024;-69
2023/11/25 14:35:08;;;;;;;3.78;3.47;;;;;;;;;;5070428;28;20032;-70